Waddell, Arizona
Current Conditions -  °F | °C
As of 11:58 AM on Tuesday 27 Jan 2015 (Local Time) from KLUF Reporting Station
Few Clouds Few Clouds  
Wind Chill: 66°   Ceiling: Unl
Heat Index: 66°   Visibility: 10mi
Dew Point: 51°   Wind: 8mph
Humidity: 57%   Direction: 90°E
Pressure: 30.22"   Gusts: NA
Location:  33.57°N, 112.43°W
Report Text: KLUF 271858Z AUTO 09007KT 10SM FEW060 19/10 A3022 RMK AO2 SLP230 T01910103 $
Loading
Personal Weather Stations






























Interactive Weather Map New forecast layout! Learn more

10-Day Weather Forecast

Advertisements
Track Severe Weather on mobile